Zeballos, Canada
Current Conditions -  °F | °C
As of 7:00 AM on Saturday 25 Oct 2014 (Local Time) from CYZT Reporting Station
Broken Clouds Broken Clouds  
Wind Chill: 36°   Ceiling: 17000
Heat Index: 39°   Visibility: 15mi
Dew Point: 39°   Wind: 5mph
Humidity: 100%   Direction: 280°W
Pressure: 29.54"   Gusts: NA
Location:  49.98°N, 126.85°W
Report Text: CYZT 251400Z 28004KT 15SM FEW012 SCT140 BKN170 BKN220 04/04 A2954 RMK SC1AC4AC2CI1 SC TR SLP003
Loading
Personal Weather Stations






























Interactive Weather Map
Tropical Storm Tracking
New forecast layout! Learn more

10-Day Weather Forecast

Advertisements
Track Severe Weather on mobile